sensor_id;sensor_type;location;lat;lon;timestamp;P1;durP1;ratioP1;P2;durP2;ratioP2
22024;SDS011;11176;51.448;6.650;2023-03-01T00:01:11;13.20;;;8.52;;
22024;SDS011;11176;51.448;6.650;2023-03-01T00:03:41;12.02;;;8.77;;
22024;SDS011;11176;51.448;6.650;2023-03-01T00:06:08;15.02;;;8.95;;
22024;SDS011;11176;51.448;6.650;2023-03-01T00:08:35;15.02;;;9.23;;
22024;SDS011;11176;51.448;6.650;2023-03-01T00:13:46;12.80;;;8.93;;
22024;SDS011;11176;51.448;6.650;2023-03-01T00:16:15;13.90;;;9.00;;
22024;SDS011;11176;51.448;6.650;2023-03-01T00:18:47;13.38;;;8.18;;
22024;SDS011;11176;51.448;6.650;2023-03-01T00:21:15;14.35;;;8.80;;
22024;SDS011;11176;51.448;6.650;2023-03-01T00:23:41;12.80;;;8.55;;
22024;SDS011;11176;51.448;6.650;2023-03-01T00:26:10;14.70;;;8.65;;
22024;SDS011;11176;51.448;6.650;2023-03-01T00:28:39;15.68;;;8.93;;
22024;SDS011;11176;51.448;6.650;2023-03-01T00:31:07;14.35;;;8.80;;
22024;SDS011;11176;51.448;6.650;2023-03-01T00:33:41;11.43;;;8.05;;
22024;SDS011;11176;51.448;6.650;2023-03-01T00:36:08;17.27;;;9.90;;
22024;SDS011;11176;51.448;6.650;2023-03-01T00:38:36;12.23;;;8.80;;
22024;SDS011;11176;51.448;6.650;2023-03-01T00:41:04;14.52;;;8.55;;
22024;SDS011;11176;51.448;6.650;2023-03-01T00:43:35;13.52;;;8.82;;
22024;SDS011;11176;51.448;6.650;2023-03-01T00:46:06;15.27;;;9.10;;
22024;SDS011;11176;51.448;6.650;2023-03-01T00:48:35;17.33;;;9.02;;
22024;SDS011;11176;51.448;6.650;2023-03-01T00:51:09;14.98;;;8.88;;
22024;SDS011;11176;51.448;6.650;2023-03-01T00:53:44;13.80;;;9.30;;
22024;SDS011;11176;51.448;6.650;2023-03-01T00:56:12;16.40;;;9.75;;
22024;SDS011;11176;51.448;6.650;2023-03-01T00:58:40;13.13;;;9.05;;
22024;SDS011;11176;51.448;6.650;2023-03-01T01:01:12;14.80;;;8.98;;
22024;SDS011;11176;51.448;6.650;2023-03-01T01:03:44;15.32;;;9.27;;
22024;SDS011;11176;51.448;6.650;2023-03-01T01:06:15;11.75;;;8.77;;
22024;SDS011;11176;51.448;6.650;2023-03-01T01:08:44;13.40;;;8.63;;
22024;SDS011;11176;51.448;6.650;2023-03-01T01:11:10;16.70;;;9.73;;
22024;SDS011;11176;51.448;6.650;2023-03-01T01:13:38;13.88;;;9.65;;
22024;SDS011;11176;51.448;6.650;2023-03-01T01:16:06;12.38;;;9.43;;
22024;SDS011;11176;51.448;6.650;2023-03-01T01:18:33;16.83;;;9.27;;
22024;SDS011;11176;51.448;6.650;2023-03-01T01:21:20;14.13;;;9.57;;
22024;SDS011;11176;51.448;6.650;2023-03-01T01:23:49;16.83;;;9.48;;
22024;SDS011;11176;51.448;6.650;2023-03-01T01:26:18;16.45;;;9.25;;
22024;SDS011;11176;51.448;6.650;2023-03-01T01:28:46;19.38;;;9.63;;
22024;SDS011;11176;51.448;6.650;2023-03-01T01:31:13;13.55;;;9.38;;
22024;SDS011;11176;51.448;6.650;2023-03-01T01:33:40;12.55;;;8.93;;
22024;SDS011;11176;51.448;6.650;2023-03-01T01:36:06;15.85;;;10.30;;
22024;SDS011;11176;51.448;6.650;2023-03-01T01:38:34;13.35;;;9.60;;
22024;SDS011;11176;51.448;6.650;2023-03-01T01:41:03;13.23;;;9.05;;
22024;SDS011;11176;51.448;6.650;2023-03-01T01:43:32;15.30;;;10.50;;
22024;SDS011;11176;51.448;6.650;2023-03-01T01:46:01;16.20;;;9.55;;
22024;SDS011;11176;51.448;6.650;2023-03-01T01:48:43;14.70;;;9.85;;
22024;SDS011;11176;51.448;6.650;2023-03-01T01:51:17;12.25;;;8.45;;
22024;SDS011;11176;51.448;6.650;2023-03-01T01:53:47;16.00;;;10.10;;
22024;SDS011;11176;51.448;6.650;2023-03-01T01:56:19;12.82;;;9.32;;
22024;SDS011;11176;51.448;6.650;2023-03-01T01:58:47;13.52;;;10.05;;
22024;SDS011;11176;51.448;6.650;2023-03-01T02:01:14;13.70;;;10.27;;
22024;SDS011;11176;51.448;6.650;2023-03-01T02:03:42;14.25;;;9.98;;
22024;SDS011;11176;51.448;6.650;2023-03-01T02:06:19;13.18;;;9.43;;
22024;SDS011;11176;51.448;6.650;2023-03-01T02:08:47;13.70;;;9.65;;
22024;SDS011;11176;51.448;6.650;2023-03-01T02:11:15;17.83;;;10.55;;
22024;SDS011;11176;51.448;6.650;2023-03-01T02:13:47;13.05;;;9.48;;
22024;SDS011;11176;51.448;6.650;2023-03-01T02:16:14;13.75;;;9.45;;
22024;SDS011;11176;51.448;6.650;2023-03-01T02:18:42;12.18;;;9.05;;
22024;SDS011;11176;51.448;6.650;2023-03-01T02:21:53;14.05;;;10.02;;
22024;SDS011;11176;51.448;6.650;2023-03-01T02:24:21;14.38;;;9.38;;
22024;SDS011;11176;51.448;6.650;2023-03-01T02:26:57;13.95;;;9.45;;
22024;SDS011;11176;51.448;6.650;2023-03-01T02:29:25;17.98;;;10.27;;
22024;SDS011;11176;51.448;6.650;2023-03-01T02:31:54;15.52;;;9.88;;
22024;SDS011;11176;51.448;6.650;2023-03-01T02:34:25;14.85;;;9.38;;
22024;SDS011;11176;51.448;6.650;2023-03-01T02:37:09;14.70;;;9.77;;
22024;SDS011;11176;51.448;6.650;2023-03-01T02:39:44;20.25;;;9.73;;
22024;SDS011;11176;51.448;6.650;2023-03-01T02:42:15;26.25;;;9.40;;
22024;SDS011;11176;51.448;6.650;2023-03-01T02:47:15;13.73;;;8.75;;
22024;SDS011;11176;51.448;6.650;2023-03-01T02:49:42;16.83;;;10.25;;
22024;SDS011;11176;51.448;6.650;2023-03-01T02:55:01;15.02;;;9.73;;
22024;SDS011;11176;51.448;6.650;2023-03-01T02:57:31;14.63;;;9.98;;
22024;SDS011;11176;51.448;6.650;2023-03-01T03:00:08;16.48;;;9.50;;
22024;SDS011;11176;51.448;6.650;2023-03-01T03:02:37;17.52;;;10.02;;
22024;SDS011;11176;51.448;6.650;2023-03-01T03:05:13;16.17;;;9.75;;
22024;SDS011;11176;51.448;6.650;2023-03-01T03:07:43;14.85;;;10.57;;
22024;SDS011;11176;51.448;6.650;2023-03-01T03:10:13;15.95;;;9.75;;
22024;SDS011;11176;51.448;6.650;2023-03-01T03:13:07;14.90;;;10.30;;
22024;SDS011;11176;51.448;6.650;2023-03-01T03:15:39;17.15;;;10.30;;
22024;SDS011;11176;51.448;6.650;2023-03-01T03:18:08;12.45;;;9.63;;
22024;SDS011;11176;51.448;6.650;2023-03-01T03:20:37;14.77;;;9.93;;
22024;SDS011;11176;51.448;6.650;2023-03-01T03:23:06;14.30;;;10.10;;
22024;SDS011;11176;51.448;6.650;2023-03-01T03:25:33;15.60;;;10.40;;
22024;SDS011;11176;51.448;6.650;2023-03-01T03:28:04;16.98;;;11.30;;
22024;SDS011;11176;51.448;6.650;2023-03-01T03:30:37;13.73;;;10.02;;
22024;SDS011;11176;51.448;6.650;2023-03-01T03:33:05;14.45;;;10.25;;
22024;SDS011;11176;51.448;6.650;2023-03-01T03:35:33;13.38;;;9.68;;
22024;SDS011;11176;51.448;6.650;2023-03-01T03:38:05;16.53;;;11.00;;
22024;SDS011;11176;51.448;6.650;2023-03-01T03:40:36;15.65;;;11.02;;
22024;SDS011;11176;51.448;6.650;2023-03-01T03:43:05;13.63;;;10.82;;
22024;SDS011;11176;51.448;6.650;2023-03-01T03:45:34;15.50;;;10.23;;
22024;SDS011;11176;51.448;6.650;2023-03-01T03:48:02;14.00;;;10.10;;
22024;SDS011;11176;51.448;6.650;2023-03-01T03:50:30;15.52;;;11.38;;
22024;SDS011;11176;51.448;6.650;2023-03-01T03:52:57;16.23;;;10.10;;
22024;SDS011;11176;51.448;6.650;2023-03-01T03:55:23;16.75;;;10.55;;
22024;SDS011;11176;51.448;6.650;2023-03-01T03:57:54;17.30;;;11.10;;
22024;SDS011;11176;51.448;6.650;2023-03-01T04:00:23;15.40;;;10.60;;
22024;SDS011;11176;51.448;6.650;2023-03-01T04:02:50;17.80;;;10.77;;
22024;SDS011;11176;51.448;6.650;2023-03-01T04:05:18;16.80;;;10.98;;
22024;SDS011;11176;51.448;6.650;2023-03-01T04:07:45;19.40;;;11.10;;
22024;SDS011;11176;51.448;6.650;2023-03-01T04:10:13;16.02;;;11.07;;
22024;SDS011;11176;51.448;6.650;2023-03-01T04:12:41;16.33;;;11.77;;
22024;SDS011;11176;51.448;6.650;2023-03-01T04:15:11;16.38;;;11.25;;
22024;SDS011;11176;51.448;6.650;2023-03-01T04:17:41;13.82;;;10.35;;
22024;SDS011;11176;51.448;6.650;2023-03-01T04:20:10;16.10;;;10.93;;
22024;SDS011;11176;51.448;6.650;2023-03-01T04:22:51;18.65;;;11.57;;
22024;SDS011;11176;51.448;6.650;2023-03-01T04:25:23;15.80;;;10.50;;
22024;SDS011;11176;51.448;6.650;2023-03-01T04:27:51;16.45;;;10.45;;
22024;SDS011;11176;51.448;6.650;2023-03-01T04:30:18;14.73;;;10.85;;
22024;SDS011;11176;51.448;6.650;2023-03-01T04:32:44;14.80;;;10.27;;
22024;SDS011;11176;51.448;6.650;2023-03-01T04:35:11;15.52;;;10.73;;
22024;SDS011;11176;51.448;6.650;2023-03-01T04:37:37;12.60;;;10.02;;
22024;SDS011;11176;51.448;6.650;2023-03-01T04:40:04;15.05;;;10.38;;
22024;SDS011;11176;51.448;6.650;2023-03-01T04:42:39;16.52;;;10.48;;
22024;SDS011;11176;51.448;6.650;2023-03-01T04:45:05;13.60;;;9.75;;
22024;SDS011;11176;51.448;6.650;2023-03-01T04:47:39;15.18;;;10.57;;
22024;SDS011;11176;51.448;6.650;2023-03-01T04:50:07;14.68;;;10.25;;
22024;SDS011;11176;51.448;6.650;2023-03-01T04:52:34;14.32;;;10.05;;
22024;SDS011;11176;51.448;6.650;2023-03-01T04:55:01;14.40;;;10.00;;
22024;SDS011;11176;51.448;6.650;2023-03-01T04:57:29;17.40;;;10.38;;
22024;SDS011;11176;51.448;6.650;2023-03-01T04:59:56;14.85;;;10.00;;
22024;SDS011;11176;51.448;6.650;2023-03-01T05:02:23;13.40;;;9.85;;
22024;SDS011;11176;51.448;6.650;2023-03-01T05:04:50;14.95;;;10.63;;
22024;SDS011;11176;51.448;6.650;2023-03-01T05:07:16;14.68;;;10.45;;
22024;SDS011;11176;51.448;6.650;2023-03-01T05:09:45;16.58;;;10.75;;
22024;SDS011;11176;51.448;6.650;2023-03-01T05:12:13;18.88;;;11.02;;
22024;SDS011;11176;51.448;6.650;2023-03-01T05:14:41;15.82;;;9.98;;
22024;SDS011;11176;51.448;6.650;2023-03-01T05:17:07;13.55;;;10.63;;
22024;SDS011;11176;51.448;6.650;2023-03-01T05:19:34;19.77;;;11.02;;
22024;SDS011;11176;51.448;6.650;2023-03-01T05:22:01;16.45;;;11.32;;
22024;SDS011;11176;51.448;6.650;2023-03-01T05:24:27;17.08;;;10.45;;
22024;SDS011;11176;51.448;6.650;2023-03-01T05:26:55;18.85;;;11.38;;
22024;SDS011;11176;51.448;6.650;2023-03-01T05:29:22;17.10;;;11.70;;
22024;SDS011;11176;51.448;6.650;2023-03-01T05:31:56;15.63;;;11.25;;
22024;SDS011;11176;51.448;6.650;2023-03-01T05:34:31;17.98;;;11.32;;
22024;SDS011;11176;51.448;6.650;2023-03-01T05:36:59;17.77;;;11.77;;
22024;SDS011;11176;51.448;6.650;2023-03-01T05:39:26;20.40;;;11.52;;
22024;SDS011;11176;51.448;6.650;2023-03-01T05:41:59;16.60;;;11.45;;
22024;SDS011;11176;51.448;6.650;2023-03-01T05:44:27;18.20;;;12.20;;
22024;SDS011;11176;51.448;6.650;2023-03-01T05:46:54;17.77;;;11.75;;
22024;SDS011;11176;51.448;6.650;2023-03-01T05:49:21;15.95;;;11.68;;
22024;SDS011;11176;51.448;6.650;2023-03-01T05:51:52;15.85;;;12.27;;
22024;SDS011;11176;51.448;6.650;2023-03-01T05:54:20;16.85;;;11.55;;
22024;SDS011;11176;51.448;6.650;2023-03-01T05:56:48;15.90;;;11.07;;
22024;SDS011;11176;51.448;6.650;2023-03-01T05:59:14;15.63;;;11.07;;
22024;SDS011;11176;51.448;6.650;2023-03-01T06:01:42;16.05;;;10.90;;
22024;SDS011;11176;51.448;6.650;2023-03-01T06:04:09;16.20;;;11.77;;
22024;SDS011;11176;51.448;6.650;2023-03-01T06:06:37;15.35;;;11.13;;
22024;SDS011;11176;51.448;6.650;2023-03-01T06:09:07;19.95;;;12.05;;
22024;SDS011;11176;51.448;6.650;2023-03-01T06:11:35;17.02;;;11.85;;
22024;SDS011;11176;51.448;6.650;2023-03-01T06:14:03;20.00;;;11.70;;
22024;SDS011;11176;51.448;6.650;2023-03-01T06:16:30;14.75;;;10.63;;
22024;SDS011;11176;51.448;6.650;2023-03-01T06:18:57;15.98;;;10.73;;
22024;SDS011;11176;51.448;6.650;2023-03-01T06:21:23;15.85;;;11.10;;
22024;SDS011;11176;51.448;6.650;2023-03-01T06:23:50;15.90;;;10.57;;
22024;SDS011;11176;51.448;6.650;2023-03-01T06:26:18;17.00;;;10.45;;
22024;SDS011;11176;51.448;6.650;2023-03-01T06:28:45;18.15;;;11.07;;
22024;SDS011;11176;51.448;6.650;2023-03-01T06:31:12;17.25;;;11.05;;
22024;SDS011;11176;51.448;6.650;2023-03-01T06:33:38;15.40;;;11.50;;
22024;SDS011;11176;51.448;6.650;2023-03-01T06:36:05;20.83;;;11.82;;
22024;SDS011;11176;51.448;6.650;2023-03-01T06:38:33;16.98;;;11.18;;
22024;SDS011;11176;51.448;6.650;2023-03-01T06:40:59;17.17;;;11.63;;
22024;SDS011;11176;51.448;6.650;2023-03-01T06:43:27;22.15;;;12.05;;
22024;SDS011;11176;51.448;6.650;2023-03-01T06:45:53;17.45;;;11.40;;
22024;SDS011;11176;51.448;6.650;2023-03-01T06:48:20;17.42;;;11.02;;
22024;SDS011;11176;51.448;6.650;2023-03-01T06:50:46;17.52;;;11.80;;
22024;SDS011;11176;51.448;6.650;2023-03-01T06:53:13;15.55;;;11.25;;
22024;SDS011;11176;51.448;6.650;2023-03-01T06:55:39;16.60;;;11.15;;
22024;SDS011;11176;51.448;6.650;2023-03-01T06:58:06;20.27;;;11.48;;
22024;SDS011;11176;51.448;6.650;2023-03-01T07:00:32;17.52;;;11.40;;
22024;SDS011;11176;51.448;6.650;2023-03-01T07:02:59;21.38;;;11.32;;
22024;SDS011;11176;51.448;6.650;2023-03-01T07:05:28;20.17;;;12.65;;
22024;SDS011;11176;51.448;6.650;2023-03-01T07:07:55;19.77;;;11.90;;
22024;SDS011;11176;51.448;6.650;2023-03-01T07:10:22;19.58;;;12.00;;
22024;SDS011;11176;51.448;6.650;2023-03-01T07:12:49;19.42;;;11.50;;
22024;SDS011;11176;51.448;6.650;2023-03-01T07:15:15;19.00;;;12.15;;
22024;SDS011;11176;51.448;6.650;2023-03-01T07:17:42;19.27;;;12.27;;
22024;SDS011;11176;51.448;6.650;2023-03-01T07:20:10;20.92;;;12.40;;
22024;SDS011;11176;51.448;6.650;2023-03-01T07:22:39;20.88;;;12.73;;
22024;SDS011;11176;51.448;6.650;2023-03-01T07:25:06;16.42;;;11.75;;
22024;SDS011;11176;51.448;6.650;2023-03-01T07:27:32;17.42;;;12.10;;
22024;SDS011;11176;51.448;6.650;2023-03-01T07:29:59;21.05;;;12.45;;
22024;SDS011;11176;51.448;6.650;2023-03-01T07:32:25;16.02;;;11.93;;
22024;SDS011;11176;51.448;6.650;2023-03-01T07:34:52;19.77;;;11.95;;
22024;SDS011;11176;51.448;6.650;2023-03-01T07:37:18;22.45;;;13.23;;
22024;SDS011;11176;51.448;6.650;2023-03-01T07:39:45;18.25;;;11.30;;
22024;SDS011;11176;51.448;6.650;2023-03-01T07:42:12;19.60;;;12.40;;
22024;SDS011;11176;51.448;6.650;2023-03-01T07:44:38;18.85;;;11.63;;
22024;SDS011;11176;51.448;6.650;2023-03-01T07:47:05;20.30;;;11.65;;
22024;SDS011;11176;51.448;6.650;2023-03-01T07:49:31;19.52;;;11.88;;
22024;SDS011;11176;51.448;6.650;2023-03-01T07:51:57;19.65;;;11.82;;
22024;SDS011;11176;51.448;6.650;2023-03-01T07:54:24;20.33;;;12.75;;
22024;SDS011;11176;51.448;6.650;2023-03-01T07:56:52;19.65;;;12.60;;
22024;SDS011;11176;51.448;6.650;2023-03-01T07:59:18;18.92;;;12.93;;
22024;SDS011;11176;51.448;6.650;2023-03-01T08:01:45;20.52;;;11.63;;
22024;SDS011;11176;51.448;6.650;2023-03-01T08:04:11;18.35;;;12.30;;
22024;SDS011;11176;51.448;6.650;2023-03-01T08:06:38;17.63;;;11.73;;
22024;SDS011;11176;51.448;6.650;2023-03-01T08:09:04;18.77;;;12.35;;
22024;SDS011;11176;51.448;6.650;2023-03-01T08:11:30;15.88;;;11.63;;
22024;SDS011;11176;51.448;6.650;2023-03-01T08:13:57;17.65;;;12.07;;
22024;SDS011;11176;51.448;6.650;2023-03-01T08:16:24;19.83;;;12.13;;
22024;SDS011;11176;51.448;6.650;2023-03-01T08:18:50;19.88;;;12.02;;
22024;SDS011;11176;51.448;6.650;2023-03-01T08:21:17;17.85;;;11.68;;
22024;SDS011;11176;51.448;6.650;2023-03-01T08:23:44;19.98;;;12.27;;
22024;SDS011;11176;51.448;6.650;2023-03-01T08:26:12;18.77;;;11.98;;
22024;SDS011;11176;51.448;6.650;2023-03-01T08:28:41;18.33;;;11.57;;
22024;SDS011;11176;51.448;6.650;2023-03-01T08:31:24;17.70;;;11.73;;
22024;SDS011;11176;51.448;6.650;2023-03-01T08:33:53;18.42;;;11.52;;
22024;SDS011;11176;51.448;6.650;2023-03-01T08:36:23;18.65;;;11.73;;
22024;SDS011;11176;51.448;6.650;2023-03-01T08:38:58;18.08;;;10.52;;
22024;SDS011;11176;51.448;6.650;2023-03-01T08:41:25;16.15;;;10.75;;
22024;SDS011;11176;51.448;6.650;2023-03-01T08:43:52;17.05;;;10.52;;
22024;SDS011;11176;51.448;6.650;2023-03-01T08:46:25;16.17;;;11.05;;
22024;SDS011;11176;51.448;6.650;2023-03-01T08:48:56;19.63;;;11.45;;
22024;SDS011;11176;51.448;6.650;2023-03-01T08:51:24;14.13;;;10.20;;
22024;SDS011;11176;51.448;6.650;2023-03-01T08:53:52;17.63;;;10.68;;
22024;SDS011;11176;51.448;6.650;2023-03-01T08:56:19;17.40;;;10.75;;
22024;SDS011;11176;51.448;6.650;2023-03-01T08:58:46;15.52;;;9.80;;
22024;SDS011;11176;51.448;6.650;2023-03-01T09:01:17;18.77;;;10.55;;
22024;SDS011;11176;51.448;6.650;2023-03-01T09:03:45;17.40;;;11.27;;
22024;SDS011;11176;51.448;6.650;2023-03-01T09:06:11;15.15;;;10.50;;
22024;SDS011;11176;51.448;6.650;2023-03-01T09:08:39;17.20;;;9.73;;
22024;SDS011;11176;51.448;6.650;2023-03-01T09:11:08;22.25;;;10.77;;
22024;SDS011;11176;51.448;6.650;2023-03-01T09:13:36;16.38;;;10.85;;
22024;SDS011;11176;51.448;6.650;2023-03-01T09:16:03;17.80;;;9.60;;
22024;SDS011;11176;51.448;6.650;2023-03-01T09:18:31;14.35;;;9.32;;
22024;SDS011;11176;51.448;6.650;2023-03-01T09:21:09;14.50;;;10.63;;
22024;SDS011;11176;51.448;6.650;2023-03-01T09:23:42;14.27;;;9.48;;
22024;SDS011;11176;51.448;6.650;2023-03-01T09:26:12;14.30;;;9.65;;
22024;SDS011;11176;51.448;6.650;2023-03-01T09:28:42;16.35;;;10.15;;
22024;SDS011;11176;51.448;6.650;2023-03-01T09:31:10;16.58;;;9.27;;
22024;SDS011;11176;51.448;6.650;2023-03-01T09:33:41;14.55;;;9.27;;
22024;SDS011;11176;51.448;6.650;2023-03-01T09:36:13;14.23;;;9.40;;
22024;SDS011;11176;51.448;6.650;2023-03-01T09:38:43;18.63;;;10.10;;
22024;SDS011;11176;51.448;6.650;2023-03-01T09:47:17;13.43;;;8.63;;
22024;SDS011;11176;51.448;6.650;2023-03-01T09:49:47;13.88;;;9.82;;
22024;SDS011;11176;51.448;6.650;2023-03-01T09:55:09;14.30;;;8.77;;
22024;SDS011;11176;51.448;6.650;2023-03-01T09:57:49;12.90;;;9.00;;
22024;SDS011;11176;51.448;6.650;2023-03-01T10:08:48;19.15;;;10.00;;
22024;SDS011;11176;51.448;6.650;2023-03-01T10:11:26;17.00;;;9.18;;
22024;SDS011;11176;51.448;6.650;2023-03-01T10:16:47;17.20;;;9.60;;
22024;SDS011;11176;51.448;6.650;2023-03-01T10:19:22;14.70;;;8.65;;
22024;SDS011;11176;51.448;6.650;2023-03-01T10:22:01;14.07;;;9.05;;
22024;SDS011;11176;51.448;6.650;2023-03-01T10:24:32;12.30;;;8.05;;
22024;SDS011;11176;51.448;6.650;2023-03-01T10:27:04;14.95;;;8.60;;
22024;SDS011;11176;51.448;6.650;2023-03-01T10:29:37;12.32;;;8.38;;
22024;SDS011;11176;51.448;6.650;2023-03-01T10:32:10;14.82;;;7.85;;
22024;SDS011;11176;51.448;6.650;2023-03-01T10:34:37;12.73;;;8.05;;
22024;SDS011;11176;51.448;6.650;2023-03-01T10:37:14;14.93;;;8.20;;
22024;SDS011;11176;51.448;6.650;2023-03-01T10:40:02;16.13;;;7.78;;
22024;SDS011;11176;51.448;6.650;2023-03-01T10:42:47;19.42;;;8.88;;
22024;SDS011;11176;51.448;6.650;2023-03-01T10:50:31;13.43;;;8.35;;
22024;SDS011;11176;51.448;6.650;2023-03-01T10:52:59;13.70;;;7.25;;
22024;SDS011;11176;51.448;6.650;2023-03-01T10:55:34;13.85;;;8.20;;
22024;SDS011;11176;51.448;6.650;2023-03-01T11:00:51;11.77;;;7.18;;
22024;SDS011;11176;51.448;6.650;2023-03-01T11:03:21;11.77;;;7.65;;
22024;SDS011;11176;51.448;6.650;2023-03-01T11:05:53;13.25;;;6.85;;
22024;SDS011;11176;51.448;6.650;2023-03-01T11:08:29;12.98;;;6.72;;
22024;SDS011;11176;51.448;6.650;2023-03-01T11:11:04;11.20;;;7.07;;
22024;SDS011;11176;51.448;6.650;2023-03-01T11:16:24;11.90;;;7.40;;
22024;SDS011;11176;51.448;6.650;2023-03-01T11:18:58;14.38;;;6.65;;
22024;SDS011;11176;51.448;6.650;2023-03-01T11:21:26;10.48;;;6.53;;
22024;SDS011;11176;51.448;6.650;2023-03-01T11:23:59;11.60;;;6.97;;
22024;SDS011;11176;51.448;6.650;2023-03-01T11:26:27;11.93;;;5.95;;
22024;SDS011;11176;51.448;6.650;2023-03-01T11:28:58;10.27;;;6.38;;
22024;SDS011;11176;51.448;6.650;2023-03-01T11:31:29;12.93;;;6.78;;
22024;SDS011;11176;51.448;6.650;2023-03-01T11:34:10;11.48;;;6.00;;
22024;SDS011;11176;51.448;6.650;2023-03-01T11:36:41;10.95;;;5.95;;
22024;SDS011;11176;51.448;6.650;2023-03-01T11:39:20;9.55;;;4.68;;
22024;SDS011;11176;51.448;6.650;2023-03-01T11:42:03;8.40;;;5.70;;
22024;SDS011;11176;51.448;6.650;2023-03-01T11:45:08;9.70;;;5.80;;
22024;SDS011;11176;51.448;6.650;2023-03-01T11:50:58;10.70;;;6.15;;
22024;SDS011;11176;51.448;6.650;2023-03-01T11:53:22;10.57;;;5.60;;
22024;SDS011;11176;51.448;6.650;2023-03-01T12:01:15;8.27;;;5.47;;
22024;SDS011;11176;51.448;6.650;2023-03-01T12:06:57;8.02;;;5.28;;
22024;SDS011;11176;51.448;6.650;2023-03-01T12:26:02;9.93;;;5.93;;
22024;SDS011;11176;51.448;6.650;2023-03-01T12:28:45;10.52;;;5.95;;
22024;SDS011;11176;51.448;6.650;2023-03-01T12:34:28;8.48;;;5.40;;
22024;SDS011;11176;51.448;6.650;2023-03-01T12:37:17;10.63;;;5.55;;
22024;SDS011;11176;51.448;6.650;2023-03-01T12:40:15;8.85;;;5.55;;
22024;SDS011;11176;51.448;6.650;2023-03-01T12:43:22;11.65;;;5.97;;
22024;SDS011;11176;51.448;6.650;2023-03-01T12:48:43;7.85;;;5.40;;
22024;SDS011;11176;51.448;6.650;2023-03-01T12:51:35;11.10;;;6.00;;
22024;SDS011;11176;51.448;6.650;2023-03-01T12:54:16;14.32;;;6.72;;
22024;SDS011;11176;51.448;6.650;2023-03-01T12:56:56;10.73;;;5.97;;
22024;SDS011;11176;51.448;6.650;2023-03-01T12:59:35;11.43;;;5.75;;
22024;SDS011;11176;51.448;6.650;2023-03-01T13:07:35;10.02;;;6.13;;
22024;SDS011;11176;51.448;6.650;2023-03-01T13:10:39;10.13;;;6.28;;
22024;SDS011;11176;51.448;6.650;2023-03-01T13:13:14;9.30;;;5.65;;
22024;SDS011;11176;51.448;6.650;2023-03-01T13:15:45;10.85;;;5.90;;
22024;SDS011;11176;51.448;6.650;2023-03-01T13:20:47;11.27;;;5.72;;
22024;SDS011;11176;51.448;6.650;2023-03-01T13:30:54;10.90;;;5.38;;
22024;SDS011;11176;51.448;6.650;2023-03-01T13:35:54;9.23;;;5.30;;
22024;SDS011;11176;51.448;6.650;2023-03-01T13:38:38;10.35;;;5.38;;
22024;SDS011;11176;51.448;6.650;2023-03-01T13:41:10;7.57;;;5.20;;
22024;SDS011;11176;51.448;6.650;2023-03-01T13:43:38;8.52;;;5.40;;
22024;SDS011;11176;51.448;6.650;2023-03-01T13:46:09;9.52;;;5.78;;
22024;SDS011;11176;51.448;6.650;2023-03-01T13:48:41;10.40;;;5.60;;
22024;SDS011;11176;51.448;6.650;2023-03-01T13:51:10;12.20;;;5.93;;
22024;SDS011;11176;51.448;6.650;2023-03-01T13:53:42;8.25;;;5.35;;
22024;SDS011;11176;51.448;6.650;2023-03-01T13:56:12;8.15;;;5.45;;
22024;SDS011;11176;51.448;6.650;2023-03-01T13:58:49;7.78;;;5.63;;
22024;SDS011;11176;51.448;6.650;2023-03-01T14:01:26;10.00;;;5.93;;
22024;SDS011;11176;51.448;6.650;2023-03-01T14:03:55;12.25;;;6.07;;
22024;SDS011;11176;51.448;6.650;2023-03-01T14:06:23;9.18;;;6.13;;
22024;SDS011;11176;51.448;6.650;2023-03-01T14:09:02;10.68;;;6.97;;
22024;SDS011;11176;51.448;6.650;2023-03-01T14:14:10;10.10;;;6.05;;
22024;SDS011;11176;51.448;6.650;2023-03-01T14:24:47;8.98;;;5.80;;
22024;SDS011;11176;51.448;6.650;2023-03-01T14:27:18;7.90;;;5.53;;
22024;SDS011;11176;51.448;6.650;2023-03-01T14:29:54;7.93;;;5.20;;
22024;SDS011;11176;51.448;6.650;2023-03-01T14:32:25;7.97;;;5.28;;
22024;SDS011;11176;51.448;6.650;2023-03-01T14:34:57;10.85;;;6.00;;
22024;SDS011;11176;51.448;6.650;2023-03-01T14:37:26;10.02;;;5.90;;
22024;SDS011;11176;51.448;6.650;2023-03-01T14:39:56;10.07;;;5.95;;
22024;SDS011;11176;51.448;6.650;2023-03-01T14:42:25;9.68;;;6.55;;
22024;SDS011;11176;51.448;6.650;2023-03-01T14:44:55;9.27;;;5.50;;
22024;SDS011;11176;51.448;6.650;2023-03-01T14:47:30;10.65;;;6.57;;
22024;SDS011;11176;51.448;6.650;2023-03-01T14:52:36;8.15;;;5.38;;
22024;SDS011;11176;51.448;6.650;2023-03-01T14:55:13;10.93;;;6.18;;
22024;SDS011;11176;51.448;6.650;2023-03-01T14:57:44;10.30;;;6.40;;
22024;SDS011;11176;51.448;6.650;2023-03-01T15:00:18;10.50;;;6.63;;
22024;SDS011;11176;51.448;6.650;2023-03-01T15:02:48;13.77;;;6.90;;
22024;SDS011;11176;51.448;6.650;2023-03-01T15:05:18;11.20;;;6.38;;
22024;SDS011;11176;51.448;6.650;2023-03-01T15:08:00;10.73;;;6.68;;
22024;SDS011;11176;51.448;6.650;2023-03-01T15:10:32;9.18;;;6.25;;
22024;SDS011;11176;51.448;6.650;2023-03-01T15:13:13;10.77;;;6.90;;
22024;SDS011;11176;51.448;6.650;2023-03-01T15:15:47;9.73;;;6.63;;
22024;SDS011;11176;51.448;6.650;2023-03-01T15:18:20;9.73;;;6.60;;
22024;SDS011;11176;51.448;6.650;2023-03-01T15:20:52;10.95;;;6.50;;
22024;SDS011;11176;51.448;6.650;2023-03-01T15:25:56;11.27;;;6.95;;
22024;SDS011;11176;51.448;6.650;2023-03-01T15:28:28;10.45;;;6.30;;
22024;SDS011;11176;51.448;6.650;2023-03-01T15:31:01;10.43;;;7.07;;
22024;SDS011;11176;51.448;6.650;2023-03-01T15:36:29;10.60;;;5.97;;
22024;SDS011;11176;51.448;6.650;2023-03-01T15:38:58;10.02;;;7.00;;
22024;SDS011;11176;51.448;6.650;2023-03-01T15:41:28;8.75;;;6.20;;
22024;SDS011;11176;51.448;6.650;2023-03-01T15:44:01;10.60;;;6.93;;
22024;SDS011;11176;51.448;6.650;2023-03-01T15:46:47;10.93;;;6.38;;
22024;SDS011;11176;51.448;6.650;2023-03-01T15:49:35;9.15;;;6.13;;
22024;SDS011;11176;51.448;6.650;2023-03-01T15:52:22;8.68;;;5.72;;
22024;SDS011;11176;51.448;6.650;2023-03-01T15:55:02;10.30;;;5.97;;
22024;SDS011;11176;51.448;6.650;2023-03-01T15:57:31;9.05;;;6.13;;
22024;SDS011;11176;51.448;6.650;2023-03-01T15:59:57;9.18;;;5.97;;
22024;SDS011;11176;51.448;6.650;2023-03-01T16:02:24;11.10;;;5.50;;
22024;SDS011;11176;51.448;6.650;2023-03-01T16:04:51;9.38;;;6.20;;
22024;SDS011;11176;51.448;6.650;2023-03-01T16:07:19;12.35;;;6.35;;
22024;SDS011;11176;51.448;6.650;2023-03-01T16:09:46;8.20;;;5.68;;
22024;SDS011;11176;51.448;6.650;2023-03-01T16:12:13;10.68;;;6.53;;
22024;SDS011;11176;51.448;6.650;2023-03-01T16:14:41;10.70;;;6.35;;
22024;SDS011;11176;51.448;6.650;2023-03-01T16:17:08;10.05;;;6.45;;
22024;SDS011;11176;51.448;6.650;2023-03-01T16:19:39;8.85;;;6.10;;
22024;SDS011;11176;51.448;6.650;2023-03-01T16:22:08;13.40;;;6.85;;
22024;SDS011;11176;51.448;6.650;2023-03-01T16:24:36;10.60;;;5.82;;
22024;SDS011;11176;51.448;6.650;2023-03-01T16:27:03;9.05;;;6.18;;
22024;SDS011;11176;51.448;6.650;2023-03-01T16:29:29;9.85;;;6.35;;
22024;SDS011;11176;51.448;6.650;2023-03-01T16:31:56;15.77;;;7.18;;
22024;SDS011;11176;51.448;6.650;2023-03-01T16:34:25;13.45;;;6.45;;
22024;SDS011;11176;51.448;6.650;2023-03-01T16:36:52;10.55;;;6.47;;
22024;SDS011;11176;51.448;6.650;2023-03-01T16:39:18;11.10;;;7.05;;
22024;SDS011;11176;51.448;6.650;2023-03-01T16:41:46;9.25;;;6.25;;